createdAt,value
2019-02-28T00:00:41.425Z,98873.91
2019-02-28T00:03:13.946Z,98866.37
2019-02-28T00:05:45.117Z,98861.25
2019-02-28T00:08:17.363Z,98853.56
2019-02-28T00:10:48.798Z,98860.39
2019-02-28T00:13:21.687Z,98842.82
2019-02-28T00:15:53.180Z,98842.87
2019-02-28T00:18:25.774Z,98839.77
2019-02-28T00:20:57.253Z,98832.04
2019-02-28T00:23:28.711Z,98827.31
2019-02-28T00:25:59.959Z,98822.05
2019-02-28T00:28:31.396Z,98822.05
2019-02-28T00:31:03.907Z,98820.13
2019-02-28T00:33:35.294Z,98820.13
2019-02-28T00:36:06.680Z,98818.16
2019-02-28T00:38:38.127Z,98821.20
2019-02-28T00:41:10.263Z,98822.30
2019-02-28T00:43:40.951Z,98815.74
2019-02-28T00:46:12.007Z,98810.88
2019-02-28T00:48:43.332Z,98808.08
2019-02-28T00:51:14.771Z,98806.45
2019-02-28T00:53:46.148Z,98807.45
2019-02-28T00:56:18.305Z,98797.68
2019-02-28T00:58:49.792Z,98799.27
2019-02-28T01:01:21.091Z,98793.62
2019-02-28T01:03:53.453Z,98793.22
2019-02-28T01:06:24.843Z,98790.45
2019-02-28T01:08:56.784Z,98782.29
2019-02-28T01:11:28.064Z,98781.84
2019-02-28T01:14:01.571Z,98778.30
2019-02-28T01:16:32.449Z,98774.81
2019-02-28T01:19:08.736Z,98768.91
2019-02-28T01:21:36.982Z,98768.69
2019-02-28T01:24:08.374Z,98763.27
2019-02-28T01:26:39.766Z,98762.84
2019-02-28T01:29:11.103Z,98755.04
2019-02-28T01:31:43.362Z,98752.30
2019-02-28T01:34:15.154Z,98746.01
2019-02-28T01:36:48.669Z,98743.45
2019-02-28T01:39:19.634Z,98743.30
2019-02-28T01:41:50.966Z,98737.21
2019-02-28T01:44:22.394Z,98739.61
2019-02-28T01:46:53.720Z,98728.21
2019-02-28T01:49:25.940Z,98728.13
2019-02-28T01:51:58.347Z,98721.13
2019-02-28T01:54:29.828Z,98725.42
2019-02-28T01:57:01.220Z,98716.66
2019-02-28T01:59:32.563Z,98709.82
2019-02-28T02:02:06.774Z,98701.09
2019-02-28T02:04:37.006Z,98706.94
2019-02-28T02:07:08.423Z,98709.25
2019-02-28T02:09:42.739Z,98698.95
2019-02-28T02:12:13.066Z,98694.22
2019-02-28T02:14:45.649Z,98691.70
2019-02-28T02:17:17.426Z,98696.20
2019-02-28T02:19:49.411Z,98695.67
2019-02-28T02:22:20.315Z,98687.44
2019-02-28T02:24:51.460Z,98683.39
2019-02-28T02:27:22.790Z,98676.12
2019-02-28T02:29:54.034Z,98673.22
2019-02-28T02:32:25.287Z,98664.31
2019-02-28T02:34:56.625Z,98659.33
2019-02-28T02:37:30.301Z,98649.80
2019-02-28T02:40:01.076Z,98657.87
2019-02-28T02:42:32.901Z,98653.42
2019-02-28T02:45:06.466Z,98645.89
2019-02-28T02:47:38.285Z,98644.91
2019-02-28T02:50:12.831Z,98639.92
2019-02-28T02:52:44.195Z,98649.73
2019-02-28T02:55:15.695Z,98642.40
2019-02-28T02:57:50.923Z,98639.14
2019-02-28T03:00:20.330Z,98643.48
2019-02-28T03:02:51.668Z,98641.53
2019-02-28T03:05:23.133Z,98640.52
2019-02-28T03:07:59.453Z,98637.63
2019-02-28T03:10:27.877Z,98629.86
2019-02-28T03:12:59.348Z,98624.37
2019-02-28T03:15:30.768Z,98616.42
2019-02-28T03:18:02.226Z,98614.34
2019-02-28T03:20:33.693Z,98606.63
2019-02-28T03:23:06.255Z,98600.67
2019-02-28T03:25:37.704Z,98599.34
2019-02-28T03:28:09.190Z,98598.95
2019-02-28T03:30:40.740Z,98591.39
2019-02-28T03:33:24.173Z,98588.50
2019-02-28T03:35:45.097Z,98591.47
2019-02-28T03:38:16.493Z,98578.89
2019-02-28T03:40:47.871Z,98573.98
2019-02-28T03:43:19.409Z,98569.72
2019-02-28T03:45:50.850Z,98568.48
2019-02-28T03:48:22.317Z,98568.27
2019-02-28T03:50:55.314Z,98557.61
2019-02-28T03:53:26.723Z,98554.01
2019-02-28T03:55:58.115Z,98552.84
2019-02-28T03:58:29.478Z,98550.57
2019-02-28T04:01:00.881Z,98551.52
2019-02-28T04:03:33.683Z,98552.17
2019-02-28T04:06:05.291Z,98541.18
2019-02-28T04:08:36.764Z,98539.92
2019-02-28T04:11:08.022Z,98542.29
2019-02-28T04:13:39.476Z,98539.17
2019-02-28T04:16:10.859Z,98531.47
2019-02-28T04:18:46.222Z,98525.02
2019-02-28T04:21:15.478Z,98527.81
2019-02-28T04:23:46.785Z,98525.81
2019-02-28T04:26:18.141Z,98518.05
2019-02-28T04:28:53.478Z,98517.04
2019-02-28T04:31:22.695Z,98518.83
2019-02-28T04:33:54.136Z,98508.84
2019-02-28T04:36:25.577Z,98503.03
2019-02-28T04:38:57.021Z,98509.00
2019-02-28T04:41:32.498Z,98504.20
2019-02-28T04:44:01.432Z,98502.41
2019-02-28T04:46:32.950Z,98499.61
2019-02-28T04:49:04.368Z,98498.19
2019-02-28T04:51:37.093Z,98501.34
2019-02-28T04:54:08.808Z,98491.73
2019-02-28T04:56:42.333Z,98495.69
2019-02-28T04:59:13.333Z,98490.25
2019-02-28T05:01:46.183Z,98494.16
2019-02-28T05:04:17.892Z,98482.48
2019-02-28T05:06:52.144Z,98475.77
2019-02-28T05:09:22.322Z,98472.41
2019-02-28T05:11:53.759Z,98470.77
2019-02-28T05:14:25.141Z,98465.84
2019-02-28T05:16:56.528Z,98462.40
2019-02-28T05:19:27.942Z,98457.88
2019-02-28T05:21:59.225Z,98452.31
2019-02-28T05:24:30.608Z,98457.95
2019-02-28T05:27:02.263Z,98452.70
2019-02-28T05:29:33.499Z,98448.12
2019-02-28T05:32:04.852Z,98442.34
2019-02-28T05:34:36.176Z,98431.96
2019-02-28T05:37:12.271Z,98427.75
2019-02-28T05:39:40.644Z,98421.20
2019-02-28T05:42:12.121Z,98412.66
2019-02-28T05:44:43.542Z,98412.69
2019-02-28T05:47:14.992Z,98405.41
2019-02-28T05:49:46.339Z,98401.15
2019-02-28T05:52:17.716Z,98397.00
2019-02-28T05:54:50.378Z,98399.02
2019-02-28T05:57:22.331Z,98387.06
2019-02-28T05:59:53.773Z,98387.06
2019-02-28T06:02:25.727Z,98383.98
2019-02-28T06:04:56.453Z,98387.61
2019-02-28T06:07:28.748Z,98389.47
2019-02-28T06:10:00.639Z,98379.85
2019-02-28T06:12:32.172Z,98374.56
2019-02-28T06:15:05.620Z,98370.09
2019-02-28T06:17:36.978Z,98364.15
2019-02-28T06:20:09.699Z,98358.33
2019-02-28T06:22:41.034Z,98359.33
2019-02-28T06:25:22.263Z,98359.33
2019-02-28T06:27:50.286Z,98353.69
2019-02-28T06:30:19.860Z,98354.71
2019-02-28T06:32:51.154Z,98358.67
2019-02-28T06:35:22.472Z,98348.40
2019-02-28T06:37:53.794Z,98349.08
2019-02-28T06:40:25.165Z,98338.11
2019-02-28T06:42:56.510Z,98338.41
2019-02-28T06:45:27.986Z,98333.80
2019-02-28T06:47:59.586Z,98327.11
2019-02-28T06:50:30.931Z,98328.55
2019-02-28T06:53:02.317Z,98324.18
2019-02-28T06:55:33.652Z,98326.52
2019-02-28T06:58:05.134Z,98317.20
2019-02-28T07:00:36.594Z,98316.46
2019-02-28T07:03:08.050Z,98320.80
2019-02-28T07:05:39.369Z,98308.94
2019-02-28T07:08:10.818Z,98304.45
2019-02-28T07:10:44.928Z,98298.30
2019-02-28T07:13:15.338Z,98282.92
2019-02-28T07:15:46.679Z,98264.30
2019-02-28T07:18:18.871Z,98259.59
2019-02-28T07:20:51.468Z,98252.72
2019-02-28T07:23:22.779Z,98244.95
2019-02-28T07:25:54.251Z,98236.39
2019-02-28T07:28:25.695Z,98236.47
2019-02-28T07:30:57.018Z,98235.13
2019-02-28T07:33:28.385Z,98230.45
2019-02-28T07:35:59.892Z,98226.02
2019-02-28T07:38:31.316Z,98222.34
2019-02-28T07:41:02.735Z,98215.38
2019-02-28T07:43:34.312Z,98209.23
2019-02-28T07:46:07.658Z,98186.20
2019-02-28T07:48:38.854Z,98186.11
2019-02-28T07:51:10.180Z,98184.59
2019-02-28T07:53:42.081Z,98182.98
2019-02-28T07:56:12.913Z,98180.54
2019-02-28T07:58:43.961Z,98175.69
2019-02-28T08:01:15.351Z,98168.58
2019-02-28T08:03:46.701Z,98173.40
2019-02-28T08:06:18.076Z,98156.14
2019-02-28T08:08:49.421Z,98149.50
2019-02-28T08:11:21.000Z,98148.59
2019-02-28T08:13:52.328Z,98146.31
2019-02-28T08:16:23.704Z,98133.30
2019-02-28T08:18:55.105Z,98136.56
2019-02-28T08:21:26.565Z,98124.20
2019-02-28T08:23:58.009Z,98117.47
2019-02-28T08:26:29.472Z,98116.60
2019-02-28T08:29:00.948Z,98113.79
2019-02-28T08:31:33.107Z,98098.23
2019-02-28T08:34:04.581Z,98090.55
2019-02-28T08:36:35.891Z,98089.08
2019-02-28T08:39:10.059Z,98080.21
2019-02-28T08:41:42.356Z,98080.25
2019-02-28T08:44:13.682Z,98069.01
2019-02-28T08:46:46.583Z,98065.71
2019-02-28T08:49:18.218Z,98062.12
2019-02-28T08:51:49.601Z,98054.05
2019-02-28T08:54:26.251Z,98055.23
2019-02-28T08:56:55.164Z,98053.80
2019-02-28T08:59:26.575Z,98054.20
2019-02-28T09:01:58.905Z,98047.07
2019-02-28T09:04:30.275Z,98037.34
2019-02-28T09:07:01.605Z,98028.59
2019-02-28T09:09:34.475Z,98025.88
2019-02-28T09:12:06.944Z,98019.34
2019-02-28T09:14:38.299Z,98020.71
2019-02-28T09:17:09.635Z,98013.00
2019-02-28T09:19:41.090Z,98004.30
2019-02-28T09:22:13.559Z,98001.09
2019-02-28T09:24:46.832Z,97988.30
2019-02-28T09:27:18.039Z,97977.26
2019-02-28T09:29:54.516Z,97981.59
2019-02-28T09:32:22.344Z,97965.98
2019-02-28T09:34:53.570Z,97959.37
2019-02-28T09:37:29.656Z,97953.05
2019-02-28T09:39:57.977Z,97942.94
2019-02-28T09:42:29.252Z,97929.58
2019-02-28T09:45:06.778Z,97915.75
2019-02-28T09:47:33.591Z,97904.41
2019-02-28T09:50:07.823Z,97893.47
2019-02-28T09:52:41.672Z,97890.41
2019-02-28T09:55:12.805Z,97886.77
2019-02-28T09:57:44.510Z,97870.58
2019-02-28T10:00:21.254Z,97857.17
2019-02-28T10:02:53.134Z,97856.98
2019-02-28T10:05:24.814Z,97844.23
2019-02-28T10:08:01.489Z,97857.20
2019-02-28T10:10:33.056Z,97861.91
2019-02-28T10:13:04.303Z,97850.63
2019-02-28T10:15:38.698Z,97843.28
2019-02-28T10:18:09.847Z,97844.72
2019-02-28T10:20:41.603Z,97822.66
2019-02-28T10:23:12.857Z,97821.95
2019-02-28T10:25:44.080Z,97812.33
2019-02-28T10:28:15.457Z,97804.13
2019-02-28T10:30:47.211Z,97795.20
2019-02-28T10:33:19.971Z,97795.91
2019-02-28T10:35:51.165Z,97794.09
2019-02-28T10:38:22.439Z,97790.99
2019-02-28T10:40:53.803Z,97785.86
2019-02-28T10:43:25.140Z,97775.42
2019-02-28T10:45:56.471Z,97771.34
2019-02-28T10:48:29.086Z,97784.09
2019-02-28T10:51:12.666Z,97782.02
2019-02-28T10:53:36.323Z,97773.64
2019-02-28T10:56:08.235Z,97773.11
2019-02-28T10:58:39.587Z,97749.98
2019-02-28T11:01:12.038Z,97749.27
2019-02-28T11:03:43.405Z,97742.74
2019-02-28T11:06:14.868Z,97748.94
2019-02-28T11:08:47.485Z,97743.53
2019-02-28T11:11:19.393Z,97734.42
2019-02-28T11:13:50.887Z,97738.70
2019-02-28T11:16:23.689Z,97731.64
2019-02-28T11:18:55.688Z,97710.00
2019-02-28T11:21:29.895Z,97703.52
2019-02-28T11:24:00.133Z,97702.81
2019-02-28T11:26:31.492Z,97688.18
2019-02-28T11:29:03.823Z,97678.17
2019-02-28T11:31:35.454Z,97680.95
2019-02-28T11:34:06.957Z,97683.27
2019-02-28T11:36:38.349Z,97671.00
2019-02-28T11:39:10.473Z,97668.42
2019-02-28T11:41:41.912Z,97668.73
2019-02-28T11:44:13.377Z,97658.42
2019-02-28T11:46:44.798Z,97656.41
2019-02-28T11:49:16.177Z,97632.64
2019-02-28T11:51:49.373Z,97627.73
2019-02-28T11:54:20.643Z,97625.19
2019-02-28T11:56:52.011Z,97627.14
2019-02-28T11:59:24.511Z,97615.23
2019-02-28T12:01:56.785Z,97606.03
2019-02-28T12:04:28.253Z,97600.09
2019-02-28T12:07:00.993Z,97589.27
2019-02-28T12:09:32.613Z,97581.90
2019-02-28T12:12:04.028Z,97571.03
2019-02-28T12:14:35.395Z,97574.22
2019-02-28T12:17:06.722Z,97566.34
2019-02-28T12:19:38.038Z,97557.92
2019-02-28T12:22:12.075Z,97551.59
2019-02-28T12:24:42.622Z,97553.95
2019-02-28T12:27:13.881Z,97554.04
2019-02-28T12:29:45.626Z,97544.92
2019-02-28T12:32:18.405Z,97545.65
2019-02-28T12:34:49.831Z,97534.81
2019-02-28T12:37:22.127Z,97537.47
2019-02-28T12:39:54.320Z,97539.59
2019-02-28T12:42:25.737Z,97532.97
2019-02-28T12:44:57.199Z,97538.20
2019-02-28T12:47:30.513Z,97514.75
2019-02-28T12:50:01.832Z,97514.75
2019-02-28T12:52:33.265Z,97505.95
2019-02-28T12:55:08.779Z,97501.85
2019-02-28T12:57:40.179Z,97483.02
2019-02-28T13:00:19.825Z,97483.81
2019-02-28T13:02:49.779Z,97481.79
2019-02-28T13:05:21.287Z,97466.92
2019-02-28T13:07:52.645Z,97468.67
2019-02-28T13:10:27.953Z,97461.62
2019-02-28T13:13:05.802Z,97454.73
2019-02-28T13:15:30.180Z,97449.77
2019-02-28T13:18:07.113Z,97445.30
2019-02-28T13:20:36.690Z,97454.09
2019-02-28T13:23:08.127Z,97447.30
2019-02-28T13:25:39.877Z,97433.17
2019-02-28T13:28:11.195Z,97429.16
2019-02-28T13:30:49.013Z,97430.45
2019-02-28T13:33:16.209Z,97431.86
2019-02-28T13:35:47.730Z,97426.69
2019-02-28T13:38:19.825Z,97421.56
2019-02-28T13:40:51.430Z,97417.25
2019-02-28T13:43:22.959Z,97422.00
2019-02-28T13:45:56.147Z,97412.03
2019-02-28T13:48:33.154Z,97410.52
2019-02-28T13:51:02.569Z,97410.41
2019-02-28T13:53:33.986Z,97394.94
2019-02-28T13:56:05.320Z,97394.94
2019-02-28T13:58:36.712Z,97396.95
2019-02-28T14:01:08.348Z,97396.53
2019-02-28T14:03:42.343Z,97385.16
2019-02-28T14:06:18.947Z,97384.30
2019-02-28T14:08:47.751Z,97371.52
2019-02-28T14:11:19.023Z,97365.52
2019-02-28T14:13:50.307Z,97361.13
2019-02-28T14:16:26.519Z,97354.25
2019-02-28T14:18:54.833Z,97339.51
2019-02-28T14:21:26.296Z,97337.86
2019-02-28T14:23:59.097Z,97334.59
2019-02-28T14:26:31.173Z,97332.94
2019-02-28T14:29:01.875Z,97330.52
2019-02-28T14:31:33.865Z,97325.43
2019-02-28T14:34:05.701Z,97307.58
2019-02-28T14:36:37.143Z,97303.27
2019-02-28T14:39:11.018Z,97290.38
2019-02-28T14:41:42.694Z,97276.88
2019-02-28T14:44:14.175Z,97273.58
2019-02-28T14:46:46.504Z,97288.66
2019-02-28T14:49:17.990Z,97283.39
2019-02-28T14:51:49.438Z,97283.99
2019-02-28T14:54:21.869Z,97288.16
2019-02-28T14:56:54.054Z,97274.23
2019-02-28T14:59:28.565Z,97275.08
2019-02-28T15:01:58.610Z,97274.47
2019-02-28T15:04:30.090Z,97268.31
2019-02-28T15:07:03.146Z,97266.25
2019-02-28T15:09:34.893Z,97262.70
2019-02-28T15:12:06.361Z,97264.63
2019-02-28T15:14:40.516Z,97263.92
2019-02-28T15:17:10.812Z,97264.92
2019-02-28T15:19:42.136Z,97257.66
2019-02-28T15:22:14.236Z,97258.99
2019-02-28T15:24:46.784Z,97266.37
2019-02-28T15:27:18.248Z,97263.92
2019-02-28T15:29:51.014Z,97260.41
2019-02-28T15:32:23.482Z,97257.05
2019-02-28T15:34:55.256Z,97242.51
2019-02-28T15:37:26.900Z,97240.13
2019-02-28T15:39:58.146Z,97241.90
2019-02-28T15:42:29.612Z,97235.91
2019-02-28T15:45:03.955Z,97233.19
2019-02-28T15:47:34.499Z,97233.47
2019-02-28T15:50:09.162Z,97237.46
2019-02-28T15:52:40.537Z,97227.58
2019-02-28T15:55:16.683Z,97224.84
2019-02-28T15:57:48.488Z,97229.47
2019-02-28T16:00:31.479Z,97217.75
2019-02-28T16:03:02.715Z,97224.75
2019-02-28T16:05:34.148Z,97216.16
2019-02-28T16:08:10.393Z,97216.92
2019-02-28T16:10:38.686Z,97217.27
2019-02-28T16:13:10.370Z,97208.01
2019-02-28T16:15:43.214Z,97211.63
2019-02-28T16:18:14.884Z,97201.55
2019-02-28T16:20:46.338Z,97209.50
2019-02-28T16:23:18.652Z,97200.56
2019-02-28T16:25:50.263Z,97198.69
2019-02-28T16:28:21.828Z,97177.39
2019-02-28T16:30:53.183Z,97184.08
2019-02-28T16:33:25.552Z,97178.72
2019-02-28T16:35:56.965Z,97193.11
2019-02-28T16:38:29.811Z,97179.03
2019-02-28T16:41:01.553Z,97171.17
2019-02-28T16:43:33.999Z,97165.25
2019-02-28T16:46:05.573Z,97157.09
2019-02-28T16:48:37.247Z,97163.22
2019-02-28T16:51:10.352Z,97150.95
2019-02-28T16:53:41.655Z,97149.55
2019-02-28T16:56:13.031Z,97151.02
2019-02-28T16:58:44.452Z,97153.20
2019-02-28T17:01:17.463Z,97153.23
2019-02-28T17:03:49.446Z,97148.57
2019-02-28T17:06:21.939Z,97141.06
2019-02-28T17:08:55.352Z,97141.81
2019-02-28T17:11:26.690Z,97136.05
2019-02-28T17:14:02.599Z,97135.31
2019-02-28T17:16:44.741Z,97130.19
2019-02-28T17:19:15.550Z,97122.20
2019-02-28T17:21:48.720Z,97123.69
2019-02-28T17:24:19.732Z,97117.73
2019-02-28T17:26:52.728Z,97112.98
2019-02-28T17:29:26.118Z,97105.92
2019-02-28T17:31:57.757Z,97102.70
2019-02-28T17:34:29.221Z,97101.06
2019-02-28T17:37:00.563Z,97099.11
2019-02-28T17:39:33.361Z,97095.27
2019-02-28T17:42:08.588Z,97096.83
2019-02-28T17:44:43.362Z,97083.13
2019-02-28T17:47:20.666Z,97082.41
2019-02-28T17:50:05.848Z,97070.45
2019-02-28T17:53:07.079Z,97068.89
2019-02-28T17:55:48.321Z,97060.39
2019-02-28T17:58:32.630Z,97064.06
2019-02-28T18:01:28.375Z,97056.83
2019-02-28T18:04:01.370Z,97056.30
2019-02-28T18:07:06.100Z,97049.50
2019-02-28T18:09:45.003Z,97053.92
2019-02-28T18:12:52.842Z,97045.80
2019-02-28T18:15:30.449Z,97038.78
2019-02-28T18:18:10.888Z,97039.59
2019-02-28T18:20:48.072Z,97037.52
2019-02-28T18:23:37.143Z,97043.45
2019-02-28T18:26:20.606Z,97039.81
2019-02-28T18:28:58.816Z,97030.81
2019-02-28T18:31:30.441Z,97028.86
2019-02-28T18:34:01.886Z,97023.67
2019-02-28T18:36:33.325Z,97021.78
2019-02-28T18:39:08.078Z,97021.34
2019-02-28T18:41:42.243Z,97014.95
2019-02-28T18:44:13.714Z,97010.38
2019-02-28T18:46:45.267Z,97009.03
2019-02-28T18:49:16.676Z,97008.62
2019-02-28T18:51:49.284Z,97004.25
2019-02-28T18:54:21.845Z,97002.62
2019-02-28T18:56:53.164Z,97005.64
2019-02-28T18:59:24.477Z,97002.24
2019-02-28T19:01:55.897Z,97003.30
2019-02-28T19:04:27.362Z,96996.47
2019-02-28T19:06:58.804Z,96987.18
2019-02-28T19:09:30.141Z,96981.70
2019-02-28T19:12:01.607Z,96978.59
2019-02-28T19:14:33.275Z,96964.32
2019-02-28T19:17:04.654Z,96965.22
2019-02-28T19:19:36.072Z,96963.21
2019-02-28T19:22:07.520Z,96955.48
2019-02-28T19:24:40.296Z,96944.94
2019-02-28T19:27:13.432Z,96945.96
2019-02-28T19:29:46.111Z,96949.71
2019-02-28T19:32:17.467Z,96938.20
2019-02-28T19:34:48.837Z,96933.77
2019-02-28T19:37:20.413Z,96932.64
2019-02-28T19:39:51.849Z,96924.56
2019-02-28T19:42:25.390Z,96926.12
2019-02-28T19:44:56.808Z,96917.41
2019-02-28T19:47:28.349Z,96910.40
2019-02-28T19:49:59.866Z,96904.92
2019-02-28T19:52:31.222Z,96904.61
2019-02-28T19:55:02.746Z,96911.67
2019-02-28T19:57:34.135Z,96900.66
2019-02-28T20:00:08.753Z,96906.86
2019-02-28T20:02:40.342Z,96903.28
2019-02-28T20:05:12.708Z,96904.78
2019-02-28T20:07:44.079Z,96904.49
2019-02-28T20:10:21.710Z,96890.45
2019-02-28T20:12:53.290Z,96890.25
2019-02-28T20:15:27.438Z,96889.50
2019-02-28T20:18:00.790Z,96891.58
2019-02-28T20:20:34.581Z,96887.06
2019-02-28T20:23:06.234Z,96889.22
2019-02-28T20:25:39.127Z,96873.08
2019-02-28T20:28:11.079Z,96886.33
2019-02-28T20:30:42.635Z,96884.69
2019-02-28T20:33:15.980Z,96879.54
2019-02-28T20:35:47.613Z,96883.48
2019-02-28T20:38:18.930Z,96883.53
2019-02-28T20:40:50.320Z,96879.41
2019-02-28T20:43:22.107Z,96881.89
2019-02-28T20:45:53.506Z,96876.28
2019-02-28T20:48:24.871Z,96877.98
2019-02-28T20:50:56.108Z,96877.98
2019-02-28T20:53:27.446Z,96873.12
2019-02-28T20:55:58.817Z,96871.61
2019-02-28T20:58:31.767Z,96870.50
2019-02-28T21:01:03.429Z,96871.98
2019-02-28T21:03:38.962Z,96865.72
2019-02-28T21:06:13.591Z,96870.59
2019-02-28T21:08:48.913Z,96874.56
2019-02-28T21:11:22.031Z,96867.59
2019-02-28T21:13:57.528Z,96869.11
2019-02-28T21:16:32.450Z,96873.53
2019-02-28T21:19:07.918Z,96876.05
2019-02-28T21:21:42.576Z,96881.38
2019-02-28T21:24:15.797Z,96869.80
2019-02-28T21:26:47.124Z,96875.84
2019-02-28T21:29:18.498Z,96870.42
2019-02-28T21:31:50.238Z,96863.58
2019-02-28T21:34:21.565Z,96869.70
2019-02-28T21:36:52.991Z,96861.58
2019-02-28T21:39:24.463Z,96869.63
2019-02-28T21:41:55.941Z,96865.83
2019-02-28T21:44:27.502Z,96873.38
2019-02-28T21:46:58.984Z,96874.06
2019-02-28T21:49:31.458Z,96878.74
2019-02-28T21:52:02.769Z,96885.41
2019-02-28T21:54:34.063Z,96891.87
2019-02-28T21:57:05.551Z,96890.11
2019-02-28T21:59:38.299Z,96888.38
2019-02-28T22:02:14.563Z,96885.72
2019-02-28T22:04:45.959Z,96883.67
2019-02-28T22:07:17.300Z,96879.91
2019-02-28T22:09:48.779Z,96888.15
2019-02-28T22:12:20.138Z,96895.72
2019-02-28T22:14:52.874Z,96902.50
2019-02-28T22:17:24.211Z,96901.02
2019-02-28T22:19:55.635Z,96907.41
2019-02-28T22:22:27.034Z,96902.81
2019-02-28T22:24:58.442Z,96904.38
2019-02-28T22:27:29.776Z,96911.44
2019-02-28T22:30:02.694Z,96918.69
2019-02-28T22:32:37.212Z,96912.91
2019-02-28T22:35:10.158Z,96917.99
2019-02-28T22:37:41.511Z,96915.34
2019-02-28T22:40:12.878Z,96913.41
2019-02-28T22:42:44.279Z,96921.39
2019-02-28T22:45:15.662Z,96923.45
2019-02-28T22:47:47.059Z,96917.52
2019-02-28T22:50:18.537Z,96929.92
2019-02-28T22:52:49.856Z,96919.84
2019-02-28T22:55:21.171Z,96926.65
2019-02-28T22:57:52.576Z,96933.81
2019-02-28T23:00:43.716Z,96929.20
2019-02-28T23:03:15.655Z,96934.89
2019-02-28T23:05:46.985Z,96932.91
2019-02-28T23:08:18.347Z,96932.03
2019-02-28T23:10:49.722Z,96934.80
2019-02-28T23:13:21.074Z,96931.03
2019-02-28T23:15:52.423Z,96917.88
2019-02-28T23:18:23.745Z,96908.95
2019-02-28T23:20:55.188Z,96918.41
2019-02-28T23:23:26.531Z,96918.69
2019-02-28T23:26:09.122Z,96932.28
2019-02-28T23:28:46.515Z,96940.55
2019-02-28T23:31:39.977Z,96936.86
2019-02-28T23:34:20.419Z,96941.73
2019-02-28T23:36:51.805Z,96935.95
2019-02-28T23:39:24.722Z,96939.97
2019-02-28T23:41:56.067Z,96940.64
2019-02-28T23:44:27.532Z,96939.98
2019-02-28T23:46:59.210Z,96933.47
2019-02-28T23:49:30.537Z,96928.89
2019-02-28T23:52:01.918Z,96931.42
2019-02-28T23:54:33.693Z,96915.58
2019-02-28T23:57:05.072Z,96921.83
2019-02-28T23:59:36.407Z,96915.58
